createdAt,value
2022-07-25T00:01:21.506Z,8.48
2022-07-25T00:03:51.882Z,7.55
2022-07-25T00:06:20.149Z,8.45
2022-07-25T00:08:48.219Z,8.88
2022-07-25T00:11:16.191Z,9.15
2022-07-25T00:13:45.769Z,8.30
2022-07-25T00:16:13.948Z,8.70
2022-07-25T00:18:42.292Z,8.38
2022-07-25T00:21:10.281Z,8.77
2022-07-25T00:23:38.296Z,8.55
2022-07-25T00:26:06.660Z,9.00
2022-07-25T00:28:34.980Z,8.77
2022-07-25T00:31:04.431Z,8.35
2022-07-25T00:33:32.604Z,9.05
2022-07-25T00:36:00.714Z,9.73
2022-07-25T00:38:28.765Z,8.27
2022-07-25T00:40:56.959Z,8.40
2022-07-25T00:43:24.927Z,8.52
2022-07-25T00:45:52.977Z,8.15
2022-07-25T00:48:22.781Z,8.60
2022-07-25T00:50:50.824Z,8.98
2022-07-25T00:53:19.745Z,8.23
2022-07-25T00:55:48.277Z,8.13
2022-07-25T00:58:16.577Z,8.90
2022-07-25T01:00:44.611Z,8.50
2022-07-25T01:03:12.655Z,7.57
2022-07-25T01:05:42.353Z,8.13
2022-07-25T01:08:11.038Z,9.18
2022-07-25T01:10:39.354Z,8.25
2022-07-25T01:13:07.472Z,8.25
2022-07-25T01:15:35.725Z,8.15
2022-07-25T01:18:04.233Z,8.95
2022-07-25T01:20:34.399Z,8.13
2022-07-25T01:23:02.650Z,8.95
2022-07-25T01:25:30.659Z,9.00
2022-07-25T01:27:58.878Z,8.65
2022-07-25T01:30:27.005Z,9.77
2022-07-25T01:32:54.990Z,9.43
2022-07-25T01:35:23.081Z,9.13
2022-07-25T01:37:52.623Z,9.57
2022-07-25T01:40:20.648Z,9.13
2022-07-25T01:42:48.880Z,9.68
2022-07-25T01:45:16.897Z,8.98
2022-07-25T01:47:44.946Z,9.27
2022-07-25T01:50:13.014Z,9.32
2022-07-25T01:52:40.990Z,10.13
2022-07-25T01:55:11.014Z,9.40
2022-07-25T01:57:40.604Z,9.75
2022-07-25T02:00:17.698Z,9.65
2022-07-25T02:02:46.469Z,9.75
2022-07-25T02:05:15.995Z,9.40
2022-07-25T02:07:43.939Z,9.38
2022-07-25T02:10:13.367Z,8.35
2022-07-25T02:12:41.422Z,9.32
2022-07-25T02:15:10.359Z,10.30
2022-07-25T02:17:38.708Z,10.40
2022-07-25T02:20:07.766Z,10.43
2022-07-25T02:22:35.854Z,10.52
2022-07-25T02:25:03.870Z,10.25
2022-07-25T02:27:33.383Z,9.93
2022-07-25T02:30:01.381Z,11.48
2022-07-25T02:32:29.485Z,10.73
2022-07-25T02:34:58.369Z,10.38
2022-07-25T02:37:26.403Z,10.63
2022-07-25T02:39:54.446Z,10.52
2022-07-25T02:42:22.435Z,10.77
2022-07-25T02:44:52.069Z,10.43
2022-07-25T02:47:20.106Z,10.98
2022-07-25T02:49:48.206Z,10.35
2022-07-25T02:52:16.253Z,10.30
2022-07-25T02:54:44.373Z,9.82
2022-07-25T02:57:12.356Z,10.05
2022-07-25T02:59:40.369Z,10.40
2022-07-25T03:02:09.853Z,10.73
2022-07-25T03:04:38.217Z,10.05
2022-07-25T03:07:06.749Z,10.00
2022-07-25T03:09:34.720Z,10.43
2022-07-25T03:12:02.830Z,10.93
2022-07-25T03:14:30.859Z,10.68
2022-07-25T03:16:58.889Z,11.20
2022-07-25T03:19:28.274Z,10.73
2022-07-25T03:21:56.338Z,11.35
2022-07-25T03:24:24.709Z,10.73
2022-07-25T03:26:52.698Z,11.18
2022-07-25T03:29:20.694Z,11.18
2022-07-25T03:31:48.833Z,10.77
2022-07-25T03:34:16.851Z,12.18
2022-07-25T03:36:46.286Z,12.13
2022-07-25T03:39:14.634Z,11.70
2022-07-25T03:41:42.873Z,11.63
2022-07-25T03:44:10.853Z,11.50
2022-07-25T03:46:38.886Z,11.82
2022-07-25T03:49:07.105Z,11.82
2022-07-25T03:51:35.226Z,12.43
2022-07-25T03:54:06.174Z,11.00
2022-07-25T03:56:43.433Z,10.90
2022-07-25T03:59:14.346Z,11.07
2022-07-25T04:01:42.860Z,15.23
2022-07-25T04:04:11.452Z,12.10
2022-07-25T04:06:40.563Z,10.88
2022-07-25T04:09:11.364Z,11.55
2022-07-25T04:11:39.697Z,11.65
2022-07-25T04:14:08.551Z,10.93
2022-07-25T04:16:37.054Z,11.05
2022-07-25T04:19:07.622Z,12.48
2022-07-25T04:21:36.651Z,11.60
2022-07-25T04:24:05.071Z,11.95
2022-07-25T04:26:35.031Z,11.27
2022-07-25T04:29:03.960Z,11.52
2022-07-25T04:31:32.243Z,11.85
2022-07-25T04:34:00.885Z,11.82
2022-07-25T04:36:29.445Z,11.18
2022-07-25T04:38:57.773Z,10.68
2022-07-25T04:41:25.932Z,11.07
2022-07-25T04:43:59.433Z,11.10
2022-07-25T04:46:30.506Z,12.20
2022-07-25T04:48:58.710Z,11.18
2022-07-25T04:51:26.754Z,12.32
2022-07-25T04:53:54.715Z,12.10
2022-07-25T04:56:22.933Z,11.95
2022-07-25T04:58:53.854Z,11.40
2022-07-25T05:01:23.418Z,11.95
2022-07-25T05:03:51.682Z,11.73
2022-07-25T05:06:24.911Z,10.73
2022-07-25T05:08:53.262Z,11.15
2022-07-25T05:11:21.345Z,11.63
2022-07-25T05:13:49.524Z,11.18
2022-07-25T05:16:17.694Z,11.80
2022-07-25T05:18:47.363Z,10.63
2022-07-25T05:21:15.535Z,11.75
2022-07-25T05:23:44.139Z,11.13
2022-07-25T05:26:12.199Z,11.10
2022-07-25T05:28:40.392Z,11.38
2022-07-25T05:31:08.570Z,11.35
2022-07-25T05:33:36.864Z,11.13
2022-07-25T05:36:08.698Z,11.43
2022-07-25T05:38:37.241Z,11.45
2022-07-25T05:41:05.924Z,10.35
2022-07-25T05:43:34.405Z,12.07
2022-07-25T05:46:02.965Z,10.95
2022-07-25T05:48:31.248Z,10.82
2022-07-25T05:51:00.079Z,10.88
2022-07-25T05:53:29.635Z,10.55
2022-07-25T05:55:57.738Z,10.45
2022-07-25T05:58:29.643Z,11.75
2022-07-25T06:00:58.331Z,11.43
2022-07-25T06:03:26.408Z,11.57
2022-07-25T06:05:56.582Z,11.02
2022-07-25T06:08:24.990Z,11.88
2022-07-25T06:10:54.546Z,11.68
2022-07-25T06:13:23.598Z,11.05
2022-07-25T06:15:51.974Z,10.48
2022-07-25T06:18:20.120Z,11.02
2022-07-25T06:20:48.826Z,11.13
2022-07-25T06:23:17.329Z,11.25
2022-07-25T06:25:50.198Z,11.43
2022-07-25T06:28:20.194Z,11.13
2022-07-25T06:30:48.704Z,10.70
2022-07-25T06:33:16.801Z,10.57
2022-07-25T06:35:44.795Z,10.50
2022-07-25T06:38:12.895Z,10.45
2022-07-25T06:40:40.982Z,11.25
2022-07-25T06:43:09.053Z,10.13
2022-07-25T06:45:38.457Z,10.48
2022-07-25T06:48:07.299Z,10.05
2022-07-25T06:50:35.382Z,9.60
2022-07-25T06:53:03.975Z,9.88
2022-07-25T06:55:32.052Z,11.57
2022-07-25T06:58:00.327Z,10.32
2022-07-25T07:00:28.549Z,10.15
2022-07-25T07:03:01.296Z,10.15
2022-07-25T07:05:31.428Z,10.20
2022-07-25T07:08:00.229Z,9.90
2022-07-25T07:10:29.139Z,10.15
2022-07-25T07:13:08.098Z,10.18
2022-07-25T07:15:36.729Z,11.15
2022-07-25T07:18:10.088Z,10.95
2022-07-25T07:20:38.298Z,9.38
2022-07-25T07:23:08.288Z,9.80
2022-07-25T07:25:36.709Z,10.13
2022-07-25T07:28:04.904Z,10.75
2022-07-25T07:31:05.718Z,9.35
2022-07-25T07:33:23.051Z,9.40
2022-07-25T07:35:51.698Z,9.18
2022-07-25T07:38:19.853Z,9.57
2022-07-25T07:40:48.022Z,11.07
2022-07-25T07:43:16.239Z,10.98
2022-07-25T07:45:50.357Z,9.95
2022-07-25T07:48:18.492Z,8.77
2022-07-25T07:50:48.001Z,9.27
2022-07-25T07:53:16.242Z,10.20
2022-07-25T07:55:46.404Z,9.50
2022-07-25T07:58:16.669Z,10.52
2022-07-25T08:01:05.692Z,10.30
2022-07-25T08:03:41.984Z,9.48
2022-07-25T08:06:11.735Z,9.85
2022-07-25T08:08:40.479Z,9.68
2022-07-25T08:11:08.583Z,9.73
2022-07-25T08:13:38.204Z,9.60
2022-07-25T08:16:07.435Z,10.38
2022-07-25T08:18:35.598Z,10.07
2022-07-25T08:21:06.103Z,9.45
2022-07-25T08:23:35.720Z,9.73
2022-07-25T08:26:04.077Z,10.57
2022-07-25T08:28:32.373Z,9.65
2022-07-25T08:31:00.443Z,10.45
2022-07-25T08:33:28.620Z,11.43
2022-07-25T08:35:58.955Z,10.30
2022-07-25T08:38:29.446Z,10.10
2022-07-25T08:40:59.774Z,9.23
2022-07-25T08:43:29.321Z,8.82
2022-07-25T08:45:57.455Z,10.43
2022-07-25T08:48:27.309Z,8.85
2022-07-25T08:50:57.383Z,8.88
2022-07-25T08:53:34.862Z,8.65
2022-07-25T08:56:12.195Z,9.25
2022-07-25T08:58:44.230Z,8.18
2022-07-25T09:01:12.862Z,9.40
2022-07-25T09:03:42.541Z,8.25
2022-07-25T09:06:18.620Z,8.32
2022-07-25T09:08:54.492Z,7.85
2022-07-25T09:11:32.229Z,7.22
2022-07-25T09:14:02.741Z,8.57
2022-07-25T09:16:34.955Z,6.95
2022-07-25T09:19:14.645Z,7.90
2022-07-25T09:21:44.173Z,7.55
2022-07-25T09:24:15.932Z,7.47
2022-07-25T09:26:50.332Z,7.60
2022-07-25T09:29:24.671Z,6.55
2022-07-25T09:31:54.684Z,6.55
2022-07-25T09:34:37.673Z,5.82
2022-07-25T09:37:07.779Z,7.00
2022-07-25T09:39:46.653Z,6.45
2022-07-25T09:42:27.609Z,4.78
2022-07-25T09:45:04.782Z,6.63
2022-07-25T09:47:34.732Z,5.63
2022-07-25T09:50:04.262Z,6.90
2022-07-25T09:52:33.713Z,5.25
2022-07-25T09:55:04.393Z,5.38
2022-07-25T09:57:33.758Z,6.20
2022-07-25T10:00:02.430Z,5.53
2022-07-25T10:02:41.069Z,5.20
2022-07-25T10:05:14.983Z,6.03
2022-07-25T10:07:47.525Z,4.60
2022-07-25T10:10:26.243Z,5.25
2022-07-25T10:13:11.028Z,5.85
2022-07-25T10:15:47.243Z,4.68
2022-07-25T10:18:17.966Z,4.60
2022-07-25T10:20:46.775Z,4.72
2022-07-25T10:23:19.721Z,4.78
2022-07-25T10:25:49.268Z,4.18
2022-07-25T10:28:21.173Z,4.57
2022-07-25T10:30:59.396Z,4.70
2022-07-25T10:33:27.710Z,4.53
2022-07-25T10:36:06.311Z,3.67
2022-07-25T10:38:34.473Z,4.18
2022-07-25T10:41:03.307Z,3.88
2022-07-25T10:43:38.389Z,4.50
2022-07-25T10:46:13.752Z,4.15
2022-07-25T10:48:42.356Z,4.57
2022-07-25T10:51:12.927Z,4.72
2022-07-25T10:53:47.017Z,4.88
2022-07-25T10:56:17.596Z,4.82
2022-07-25T10:59:01.212Z,4.47
2022-07-25T11:01:31.688Z,5.35
2022-07-25T11:04:01.258Z,4.38
2022-07-25T11:06:35.304Z,4.22
2022-07-25T11:09:18.472Z,5.20
2022-07-25T11:11:49.302Z,4.95
2022-07-25T11:14:24.854Z,5.22
2022-07-25T11:16:56.688Z,4.90
2022-07-25T11:19:29.783Z,4.57
2022-07-25T11:22:00.022Z,4.65
2022-07-25T11:24:45.674Z,5.05
2022-07-25T11:27:21.408Z,5.50
2022-07-25T11:29:51.218Z,4.55
2022-07-25T11:32:20.114Z,5.20
2022-07-25T11:34:50.578Z,4.82
2022-07-25T11:37:19.361Z,4.80
2022-07-25T11:39:49.047Z,5.57
2022-07-25T11:42:19.310Z,5.35
2022-07-25T11:44:50.953Z,5.63
2022-07-25T11:47:27.466Z,6.25
2022-07-25T11:49:57.318Z,5.22
2022-07-25T11:52:27.207Z,5.57
2022-07-25T11:54:56.965Z,5.38
2022-07-25T11:57:26.239Z,5.45
2022-07-25T11:59:56.235Z,5.93
2022-07-25T12:02:31.107Z,5.65
2022-07-25T12:05:01.277Z,5.13
2022-07-25T12:07:40.463Z,5.55
2022-07-25T12:10:11.000Z,6.22
2022-07-25T12:12:48.908Z,5.20
2022-07-25T12:15:21.055Z,5.85
2022-07-25T12:20:19.529Z,5.47
2022-07-25T12:22:48.396Z,5.40
2022-07-25T12:25:16.714Z,5.10
2022-07-25T12:27:45.122Z,5.70
2022-07-25T12:30:15.001Z,4.78
2022-07-25T12:32:45.148Z,5.50
2022-07-25T12:35:15.102Z,4.82
2022-07-25T12:37:44.359Z,5.20
2022-07-25T12:40:14.471Z,5.22
2022-07-25T12:42:42.763Z,5.55
2022-07-25T12:45:11.803Z,4.80
2022-07-25T12:47:40.023Z,5.20
2022-07-25T12:50:10.485Z,5.30
2022-07-25T12:52:39.255Z,5.30
2022-07-25T12:55:08.902Z,5.07
2022-07-25T12:57:37.807Z,5.53
2022-07-25T13:00:24.376Z,5.22
2022-07-25T13:02:55.839Z,4.70
2022-07-25T13:05:25.947Z,5.45
2022-07-25T13:07:54.278Z,5.32
2022-07-25T13:10:22.549Z,5.35
2022-07-25T13:12:50.738Z,5.63
2022-07-25T13:15:20.892Z,5.88
2022-07-25T13:17:51.739Z,5.20
2022-07-25T13:20:19.778Z,4.70
2022-07-25T13:22:49.322Z,5.65
2022-07-25T13:25:17.763Z,5.72
2022-07-25T13:27:45.922Z,5.53
2022-07-25T13:30:15.504Z,4.88
2022-07-25T13:32:43.718Z,5.60
2022-07-25T13:35:12.051Z,5.25
2022-07-25T13:37:40.274Z,4.97
2022-07-25T13:40:10.404Z,5.40
2022-07-25T13:42:38.531Z,4.95
2022-07-25T13:45:07.779Z,5.50
2022-07-25T13:47:36.497Z,5.40
2022-07-25T13:50:05.274Z,5.78
2022-07-25T13:52:36.231Z,5.10
2022-07-25T13:55:04.971Z,4.85
2022-07-25T13:57:34.906Z,5.13
2022-07-25T14:00:03.517Z,4.97
2022-07-25T14:02:31.711Z,5.28
2022-07-25T14:05:03.925Z,5.22
2022-07-25T14:07:32.438Z,5.55
2022-07-25T14:10:00.348Z,5.15
2022-07-25T14:12:28.654Z,5.20
2022-07-25T14:14:58.141Z,4.95
2022-07-25T14:17:30.131Z,4.45
2022-07-25T14:19:58.919Z,5.25
2022-07-25T14:22:27.075Z,5.28
2022-07-25T14:24:55.202Z,4.65
2022-07-25T14:27:23.516Z,4.60
2022-07-25T14:29:51.610Z,4.78
2022-07-25T14:32:21.459Z,4.88
2022-07-25T14:34:49.628Z,4.30
2022-07-25T14:37:17.606Z,4.80
2022-07-25T14:39:45.730Z,4.70
2022-07-25T14:42:13.741Z,4.53
2022-07-25T14:44:42.014Z,4.28
2022-07-25T14:47:12.761Z,4.55
2022-07-25T14:49:43.569Z,4.32
2022-07-25T14:52:13.198Z,4.43
2022-07-25T14:54:41.739Z,4.20
2022-07-25T14:57:10.486Z,3.92
2022-07-25T14:59:38.827Z,4.10
2022-07-25T15:02:06.875Z,4.38
2022-07-25T15:04:35.002Z,3.88
2022-07-25T15:07:04.537Z,3.90
2022-07-25T15:09:32.896Z,3.75
2022-07-25T15:12:01.105Z,3.42
2022-07-25T15:14:30.346Z,3.58
2022-07-25T15:16:58.576Z,4.53
2022-07-25T15:19:27.015Z,3.50
2022-07-25T15:21:55.111Z,3.60
2022-07-25T15:24:28.922Z,3.53
2022-07-25T15:26:57.437Z,4.30
2022-07-25T15:29:25.627Z,9.85
2022-07-25T15:31:53.774Z,4.05
2022-07-25T15:34:21.916Z,4.00
2022-07-25T15:36:50.086Z,3.95
2022-07-25T15:39:19.491Z,3.90
2022-07-25T15:41:48.842Z,4.25
2022-07-25T15:44:17.035Z,3.83
2022-07-25T15:46:46.722Z,3.97
2022-07-25T15:49:16.518Z,22.23
2022-07-25T15:51:44.533Z,3.63
2022-07-25T15:54:12.531Z,4.18
2022-07-25T15:56:41.345Z,3.60
2022-07-25T15:59:10.848Z,4.10
2022-07-25T16:01:39.034Z,4.40
2022-07-25T16:04:08.222Z,4.10
2022-07-25T16:06:36.462Z,4.50
2022-07-25T16:09:05.620Z,4.30
2022-07-25T16:11:35.609Z,3.95
2022-07-25T16:14:03.635Z,3.88
2022-07-25T16:16:33.154Z,4.07
2022-07-25T16:19:01.526Z,3.83
2022-07-25T16:21:29.529Z,4.22
2022-07-25T16:23:57.480Z,4.50
2022-07-25T16:26:25.462Z,4.07
2022-07-25T16:28:57.629Z,4.30
2022-07-25T16:31:26.557Z,4.53
2022-07-25T16:33:56.105Z,4.78
2022-07-25T16:36:25.365Z,4.20
2022-07-25T16:38:53.430Z,5.15
2022-07-25T16:41:21.518Z,5.47
2022-07-25T16:43:49.654Z,8.07
2022-07-25T16:46:18.922Z,4.63
2022-07-25T16:48:47.502Z,5.25
2022-07-25T16:51:17.266Z,9.55
2022-07-25T16:53:45.472Z,24.02
2022-07-25T16:56:13.473Z,4.85
2022-07-25T16:58:41.517Z,5.10
2022-07-25T17:01:09.933Z,4.65
2022-07-25T17:03:38.081Z,4.90
2022-07-25T17:06:07.325Z,5.00
2022-07-25T17:08:37.798Z,4.82
2022-07-25T17:11:06.258Z,5.35
2022-07-25T17:13:34.419Z,5.32
2022-07-25T17:16:02.550Z,4.88
2022-07-25T17:18:30.657Z,4.93
2022-07-25T17:20:58.971Z,5.72
2022-07-25T17:23:29.512Z,5.40
2022-07-25T17:26:00.359Z,5.10
2022-07-25T17:28:28.943Z,5.10
2022-07-25T17:30:57.060Z,5.05
2022-07-25T17:33:25.167Z,5.43
2022-07-25T17:35:53.411Z,5.40
2022-07-25T17:38:25.957Z,5.07
2022-07-25T17:40:55.871Z,5.50
2022-07-25T17:43:25.571Z,5.30
2022-07-25T17:45:53.864Z,5.35
2022-07-25T17:48:25.078Z,5.40
2022-07-25T17:50:53.723Z,5.70
2022-07-25T17:53:21.938Z,5.10
2022-07-25T17:55:50.055Z,5.68
2022-07-25T17:58:18.221Z,6.03
2022-07-25T18:00:47.801Z,5.45
2022-07-25T18:03:17.256Z,6.25
2022-07-25T18:05:48.995Z,5.90
2022-07-25T18:08:17.431Z,5.53
2022-07-25T18:10:45.907Z,5.50
2022-07-25T18:13:21.704Z,6.15
2022-07-25T18:15:55.922Z,6.68
2022-07-25T18:18:34.503Z,5.72
2022-07-25T18:21:05.181Z,6.35
2022-07-25T18:23:33.572Z,6.13
2022-07-25T18:26:01.753Z,6.32
2022-07-25T18:28:34.036Z,6.90
2022-07-25T18:33:38.953Z,7.18
2022-07-25T18:36:08.003Z,6.90
2022-07-25T18:38:37.432Z,6.28
2022-07-25T18:41:28.151Z,5.97
2022-07-25T18:43:54.560Z,6.22
2022-07-25T18:46:24.148Z,5.97
2022-07-25T18:48:53.171Z,6.55
2022-07-25T18:51:24.037Z,6.38
2022-07-25T18:53:53.774Z,5.97
2022-07-25T18:56:21.898Z,6.10
2022-07-25T18:58:49.890Z,5.85
2022-07-25T19:01:18.062Z,6.13
2022-07-25T19:03:50.191Z,6.32
2022-07-25T19:06:18.346Z,7.45
2022-07-25T19:08:47.852Z,6.43
2022-07-25T19:11:16.028Z,6.53
2022-07-25T19:13:49.906Z,7.22
2022-07-25T19:16:18.735Z,6.53
2022-07-25T19:19:09.466Z,5.80
2022-07-25T19:21:38.262Z,7.60
2022-07-25T19:24:07.474Z,6.75
2022-07-25T19:26:35.770Z,7.60
2022-07-25T19:29:06.046Z,9.15
2022-07-25T19:31:34.243Z,11.38
2022-07-25T19:34:02.407Z,10.75
2022-07-25T19:36:31.900Z,9.50
2022-07-25T19:39:00.041Z,8.88
2022-07-25T19:41:28.145Z,9.45
2022-07-25T19:43:56.157Z,8.98
2022-07-25T19:46:24.943Z,9.63
2022-07-25T19:48:53.077Z,8.75
2022-07-25T19:51:21.121Z,9.65
2022-07-25T19:53:50.807Z,8.95
2022-07-25T19:56:18.713Z,7.78
2022-07-25T19:58:46.816Z,8.52
2022-07-25T20:01:14.823Z,8.27
2022-07-25T20:03:42.967Z,8.15
2022-07-25T20:06:10.975Z,6.97
2022-07-25T20:08:40.258Z,7.80
2022-07-25T20:11:10.126Z,7.00
2022-07-25T20:13:38.099Z,7.53
2022-07-25T20:16:06.775Z,6.82
2022-07-25T20:18:35.294Z,6.97
2022-07-25T20:21:03.554Z,6.78
2022-07-25T20:23:31.572Z,6.47
2022-07-25T20:26:00.565Z,7.32
2022-07-25T20:28:30.131Z,6.70
2022-07-25T20:30:59.020Z,7.35
2022-07-25T20:33:27.898Z,6.75
2022-07-25T20:35:56.520Z,6.72
2022-07-25T20:38:28.273Z,6.97
2022-07-25T20:40:57.077Z,7.72
2022-07-25T20:43:25.277Z,8.38
2022-07-25T20:45:57.431Z,8.05
2022-07-25T20:48:25.692Z,7.30
2022-07-25T20:50:53.993Z,8.30
2022-07-25T20:53:22.229Z,7.70
2022-07-25T20:55:50.427Z,7.47
2022-07-25T20:58:18.553Z,8.50
2022-07-25T21:00:47.193Z,9.80
2022-07-25T21:03:18.340Z,8.40
2022-07-25T21:05:46.315Z,8.63
2022-07-25T21:08:15.336Z,7.85
2022-07-25T21:10:43.921Z,8.55
2022-07-25T21:13:11.920Z,9.00
2022-07-25T21:15:40.094Z,7.85
2022-07-25T21:18:08.149Z,8.63
2022-07-25T21:20:38.615Z,8.82
2022-07-25T21:23:06.633Z,8.90
2022-07-25T21:25:34.634Z,9.07
2022-07-25T21:28:02.615Z,10.15
2022-07-25T21:30:30.646Z,8.50
2022-07-25T21:32:58.647Z,8.50
2022-07-25T21:35:26.695Z,7.88
2022-07-25T21:37:56.180Z,9.90
2022-07-25T21:40:24.287Z,9.75
2022-07-25T21:42:52.427Z,8.52
2022-07-25T21:45:20.459Z,7.05
2022-07-25T21:47:48.499Z,5.85
2022-07-25T21:50:33.695Z,5.55
2022-07-25T21:53:03.225Z,5.28
2022-07-25T21:55:31.217Z,6.25
2022-07-25T21:57:59.362Z,5.80
2022-07-25T22:00:27.858Z,6.00
2022-07-25T22:02:56.305Z,5.43
2022-07-25T22:05:25.067Z,5.50
2022-07-25T22:07:53.490Z,5.63
2022-07-25T22:10:23.522Z,6.03
2022-07-25T22:12:52.532Z,6.55
2022-07-25T22:15:20.685Z,5.70
2022-07-25T22:17:50.251Z,5.45
2022-07-25T22:20:18.606Z,5.70
2022-07-25T22:22:47.002Z,5.28
2022-07-25T22:25:15.085Z,6.20
2022-07-25T22:27:44.557Z,5.53
2022-07-25T22:30:18.240Z,5.22
2022-07-25T22:32:47.172Z,5.55
2022-07-25T22:35:15.487Z,5.32
2022-07-25T22:37:43.484Z,4.30
2022-07-25T22:40:12.990Z,4.38
2022-07-25T22:42:41.027Z,3.80
2022-07-25T22:45:11.399Z,4.78
2022-07-25T22:47:39.694Z,5.35
2022-07-25T22:50:09.522Z,4.75
2022-07-25T22:52:37.565Z,4.75
2022-07-25T22:55:06.110Z,3.75
2022-07-25T22:57:37.165Z,4.38
2022-07-25T23:00:08.859Z,4.30
2022-07-25T23:02:38.240Z,4.53
2022-07-25T23:05:07.593Z,5.20
2022-07-25T23:07:35.927Z,4.75
2022-07-25T23:10:04.952Z,3.95
2022-07-25T23:12:33.061Z,4.25
2022-07-25T23:15:01.153Z,4.25
2022-07-25T23:17:29.332Z,3.88
2022-07-25T23:19:58.881Z,4.22
2022-07-25T23:22:30.035Z,3.85
2022-07-25T23:24:58.625Z,3.75
2022-07-25T23:27:27.496Z,3.83
2022-07-25T23:29:55.459Z,4.38
2022-07-25T23:32:23.486Z,4.40
2022-07-25T23:34:51.557Z,4.22
2022-07-25T23:37:20.933Z,4.43
2022-07-25T23:39:48.909Z,4.32
2022-07-25T23:42:16.859Z,4.40
2022-07-25T23:44:46.291Z,4.30
2022-07-25T23:47:14.888Z,3.65
2022-07-25T23:49:43.278Z,3.70
2022-07-25T23:52:11.437Z,4.03
2022-07-25T23:54:40.915Z,3.70
2022-07-25T23:57:09.486Z,3.63
2022-07-25T23:59:37.554Z,4.03
